San Lucas, California
Current Conditions -  °F | °C
As of 1:53 AM on Friday 24 Oct 2014 (Local Time) from KPRB Reporting Station
Clear Clear  
Wind Chill: 50°   Ceiling: Unl
Heat Index: 50°   Visibility: 10mi
Dew Point: 39°   Wind: 3mph
Humidity: 66%   Direction: 140°SE
Pressure: 29.99"   Gusts: NA
Location:  36.13°N, 121.02°W
Report Text: KPRB 240853Z AUTO 14003KT 10SM CLR 10/04 A2999 RMK AO2 SLP151 T01000039 50000 TSNO
Loading
Personal Weather Stations






























Interactive Weather Map
Tropical Storm Tracking
New forecast layout! Learn more

10-Day Weather Forecast

Advertisements
Track Severe Weather on mobile